createdAt,value
2022-10-15T00:02:10.513Z,4.40
2022-10-15T00:04:40.031Z,3.85
2022-10-15T00:07:09.483Z,3.33
2022-10-15T00:09:39.184Z,3.08
2022-10-15T00:12:11.394Z,3.58
2022-10-15T00:14:40.982Z,3.55
2022-10-15T00:17:10.564Z,3.70
2022-10-15T00:19:40.042Z,3.28
2022-10-15T00:22:09.569Z,2.90
2022-10-15T00:24:39.490Z,3.03
2022-10-15T00:27:11.766Z,3.40
2022-10-15T00:29:41.428Z,3.47
2022-10-15T00:32:11.334Z,3.22
2022-10-15T00:34:42.093Z,3.15
2022-10-15T00:37:12.032Z,2.88
2022-10-15T00:39:41.522Z,2.92
2022-10-15T00:42:14.704Z,3.67
2022-10-15T00:45:01.791Z,3.13
2022-10-15T00:47:33.291Z,3.08
2022-10-15T00:50:05.616Z,2.40
2022-10-15T00:52:38.012Z,2.92
2022-10-15T00:55:09.580Z,3.30
2022-10-15T00:57:41.815Z,2.65
2022-10-15T01:00:12.942Z,2.50
2022-10-15T01:02:45.284Z,2.60
2022-10-15T01:05:15.070Z,2.70
2022-10-15T01:07:44.561Z,2.80
2022-10-15T01:10:14.552Z,2.40
2022-10-15T01:12:52.648Z,2.80
2022-10-15T01:15:25.186Z,3.17
2022-10-15T01:17:56.916Z,3.88
2022-10-15T01:20:46.561Z,3.90
2022-10-15T01:23:30.759Z,3.42
2022-10-15T01:26:07.912Z,2.75
2022-10-15T01:28:46.065Z,2.40
2022-10-15T01:31:21.561Z,2.30
2022-10-15T01:33:58.141Z,2.40
2022-10-15T01:36:30.355Z,2.97
2022-10-15T01:39:03.079Z,1.50
2022-10-15T01:41:38.958Z,1.77
2022-10-15T01:44:10.429Z,2.28
2022-10-15T01:47:11.351Z,1.98
2022-10-15T01:49:44.475Z,2.13
2022-10-15T01:52:17.463Z,2.00
2022-10-15T01:54:48.002Z,2.47
2022-10-15T01:57:18.382Z,1.95
2022-10-15T01:59:48.071Z,2.33
2022-10-15T02:02:21.136Z,2.28
2022-10-15T02:04:50.915Z,1.90
2022-10-15T02:07:30.363Z,1.90
2022-10-15T02:10:01.111Z,2.90
2022-10-15T02:12:36.017Z,2.45
2022-10-15T02:15:08.491Z,1.95
2022-10-15T02:17:41.984Z,1.70
2022-10-15T02:20:15.632Z,2.08
2022-10-15T02:22:49.255Z,1.85
2022-10-15T02:25:21.081Z,1.50
2022-10-15T02:27:51.514Z,1.75
2022-10-15T02:30:21.257Z,1.55
2022-10-15T02:32:55.014Z,1.52
2022-10-15T02:35:25.335Z,2.15
2022-10-15T02:37:55.971Z,1.67
2022-10-15T02:40:27.864Z,1.75
2022-10-15T02:42:57.553Z,1.40
2022-10-15T02:45:27.041Z,1.83
2022-10-15T02:47:59.407Z,1.75
2022-10-15T02:50:28.918Z,1.75
2022-10-15T02:52:58.433Z,1.70
2022-10-15T02:55:28.053Z,2.00
2022-10-15T02:57:57.606Z,1.73
2022-10-15T03:00:27.891Z,1.75
2022-10-15T03:03:00.419Z,1.58
2022-10-15T03:05:31.116Z,1.20
2022-10-15T03:08:01.987Z,1.55
2022-10-15T03:10:32.495Z,1.25
2022-10-15T03:13:04.977Z,1.30
2022-10-15T03:15:39.203Z,1.25
2022-10-15T03:18:11.721Z,1.42
2022-10-15T03:20:41.501Z,1.40
2022-10-15T03:23:11.012Z,1.50
2022-10-15T03:25:40.673Z,1.45
2022-10-15T03:28:10.356Z,1.77
2022-10-15T03:30:43.629Z,1.27
2022-10-15T03:33:16.392Z,1.40
2022-10-15T03:35:46.004Z,0.95
2022-10-15T03:38:16.223Z,0.90
2022-10-15T03:40:46.608Z,0.90
2022-10-15T03:43:35.398Z,1.17
2022-10-15T03:46:07.563Z,1.00
2022-10-15T03:48:44.046Z,0.95
2022-10-15T03:51:18.497Z,0.82
2022-10-15T03:53:55.424Z,1.10
2022-10-15T03:56:25.193Z,1.60
2022-10-15T03:58:58.537Z,1.02
2022-10-15T04:01:28.215Z,1.08
2022-10-15T04:04:01.131Z,1.30
2022-10-15T04:06:30.645Z,0.80
2022-10-15T04:09:05.712Z,1.40
2022-10-15T04:11:35.325Z,1.00
2022-10-15T04:14:06.568Z,1.10
2022-10-15T04:16:36.467Z,0.88
2022-10-15T04:19:17.710Z,1.00
2022-10-15T04:21:55.056Z,0.88
2022-10-15T04:24:34.812Z,0.52
2022-10-15T04:27:04.819Z,0.77
2022-10-15T04:29:34.324Z,0.85
2022-10-15T04:32:16.784Z,0.45
2022-10-15T04:34:50.535Z,1.45
2022-10-15T04:37:27.901Z,2.22
2022-10-15T04:39:57.526Z,1.52
2022-10-15T04:42:26.978Z,1.10
2022-10-15T04:44:56.619Z,1.20
2022-10-15T04:47:26.339Z,1.00
2022-10-15T04:50:10.913Z,0.90
2022-10-15T04:53:18.594Z,0.70
2022-10-15T04:55:51.731Z,1.00
2022-10-15T04:58:21.171Z,1.05
2022-10-15T05:00:50.739Z,0.90
2022-10-15T05:03:36.566Z,0.82
2022-10-15T05:06:11.741Z,1.00
2022-10-15T05:08:43.488Z,1.20
2022-10-15T05:11:22.826Z,1.17
2022-10-15T05:13:52.749Z,0.90
2022-10-15T05:16:23.092Z,0.80
2022-10-15T05:18:54.429Z,1.13
2022-10-15T05:21:26.978Z,1.17
2022-10-15T05:23:59.671Z,0.93
2022-10-15T05:26:58.046Z,1.10
2022-10-15T05:29:30.224Z,1.10
2022-10-15T05:31:59.752Z,0.80
2022-10-15T05:34:31.148Z,1.17
2022-10-15T05:37:13.979Z,1.20
2022-10-15T05:39:44.833Z,1.27
2022-10-15T05:42:14.612Z,0.98
2022-10-15T05:44:51.986Z,0.80
2022-10-15T05:47:23.543Z,1.15
2022-10-15T05:49:59.085Z,1.50
2022-10-15T05:52:36.273Z,1.05
2022-10-15T05:55:15.708Z,0.80
2022-10-15T05:57:45.235Z,1.05
2022-10-15T06:00:15.608Z,0.80
2022-10-15T06:02:45.245Z,0.80
2022-10-15T06:05:14.841Z,1.00
2022-10-15T06:07:46.929Z,0.98
2022-10-15T06:10:16.435Z,0.75
2022-10-15T06:12:46.490Z,1.00
2022-10-15T06:15:16.011Z,0.88
2022-10-15T06:17:48.514Z,1.55
2022-10-15T06:20:18.147Z,1.20
2022-10-15T06:22:50.215Z,1.70
2022-10-15T06:25:19.720Z,1.67
2022-10-15T06:27:49.132Z,1.23
2022-10-15T06:30:18.844Z,2.10
2022-10-15T06:32:50.130Z,1.40
2022-10-15T06:35:20.265Z,1.30
2022-10-15T06:37:52.588Z,1.63
2022-10-15T06:40:22.257Z,1.05
2022-10-15T06:42:51.835Z,1.45
2022-10-15T06:45:21.946Z,1.17
2022-10-15T06:47:51.540Z,1.20
2022-10-15T06:50:21.061Z,1.45
2022-10-15T06:52:53.227Z,1.50
2022-10-15T06:55:24.537Z,1.48
2022-10-15T06:57:54.008Z,1.17
2022-10-15T07:00:25.235Z,0.98
2022-10-15T07:02:55.888Z,1.20
2022-10-15T07:05:25.442Z,1.30
2022-10-15T07:08:00.089Z,0.95
2022-10-15T07:10:30.232Z,1.15
2022-10-15T07:13:01.931Z,0.88
2022-10-15T07:15:31.451Z,1.10
2022-10-15T07:18:01.669Z,1.50
2022-10-15T07:20:31.471Z,0.88
2022-10-15T07:23:04.810Z,1.33
2022-10-15T07:25:36.565Z,1.50
2022-10-15T07:28:06.305Z,1.52
2022-10-15T07:30:35.757Z,0.80
2022-10-15T07:33:05.237Z,1.45
2022-10-15T07:35:37.394Z,1.20
2022-10-15T07:38:09.439Z,1.25
2022-10-15T07:40:39.260Z,1.40
2022-10-15T07:43:08.664Z,1.30
2022-10-15T07:45:39.820Z,1.30
2022-10-15T07:48:09.445Z,1.20
2022-10-15T07:50:40.478Z,1.20
2022-10-15T07:53:17.058Z,1.45
2022-10-15T07:55:52.502Z,1.42
2022-10-15T07:58:23.314Z,1.15
2022-10-15T08:00:52.724Z,0.82
2022-10-15T08:03:22.177Z,0.98
2022-10-15T08:05:53.323Z,1.70
2022-10-15T08:08:26.564Z,1.52
2022-10-15T08:10:56.222Z,1.98
2022-10-15T08:13:25.877Z,1.63
2022-10-15T08:15:59.423Z,1.40
2022-10-15T08:18:30.924Z,1.20
2022-10-15T08:21:01.664Z,1.35
2022-10-15T08:23:33.772Z,1.42
2022-10-15T08:26:03.668Z,1.58
2022-10-15T08:28:33.843Z,2.00
2022-10-15T08:31:05.632Z,1.67
2022-10-15T08:33:36.355Z,1.55
2022-10-15T08:36:07.569Z,1.75
2022-10-15T08:38:39.637Z,1.45
2022-10-15T08:41:17.294Z,1.20
2022-10-15T08:43:49.128Z,1.35
2022-10-15T08:46:20.719Z,1.63
2022-10-15T08:48:51.842Z,1.60
2022-10-15T08:51:22.604Z,0.90
2022-10-15T08:53:56.598Z,1.50
2022-10-15T08:56:29.118Z,1.45
2022-10-15T08:59:02.673Z,0.95
2022-10-15T09:01:35.512Z,1.00
2022-10-15T09:04:09.970Z,1.17
2022-10-15T09:06:40.733Z,1.23
2022-10-15T09:09:15.891Z,0.95
2022-10-15T09:11:50.664Z,1.02
2022-10-15T09:14:24.180Z,0.95
2022-10-15T09:16:53.799Z,0.98
2022-10-15T09:19:24.175Z,1.00
2022-10-15T09:21:55.116Z,1.30
2022-10-15T09:24:28.790Z,1.30
2022-10-15T09:27:02.792Z,1.27
2022-10-15T09:29:36.135Z,1.30
2022-10-15T09:32:10.197Z,1.55
2022-10-15T09:34:42.613Z,1.35
2022-10-15T09:37:17.238Z,1.48
2022-10-15T09:40:17.297Z,1.20
2022-10-15T09:42:48.105Z,1.33
2022-10-15T09:45:18.644Z,3.38
2022-10-15T09:47:48.169Z,2.05
2022-10-15T09:52:54.055Z,0.68
2022-10-15T09:55:35.460Z,0.88
2022-10-15T09:58:07.808Z,1.25
2022-10-15T10:00:52.311Z,0.90
2022-10-15T10:03:22.127Z,0.80
2022-10-15T10:05:51.955Z,1.30
2022-10-15T10:08:23.043Z,0.68
2022-10-15T10:10:59.813Z,1.42
2022-10-15T10:13:31.753Z,1.02
2022-10-15T10:16:05.209Z,0.88
2022-10-15T10:18:35.156Z,0.88
2022-10-15T10:21:06.013Z,1.10
2022-10-15T10:23:36.765Z,1.38
2022-10-15T10:26:09.476Z,0.82
2022-10-15T10:28:44.119Z,1.35
2022-10-15T10:31:14.118Z,1.13
2022-10-15T10:33:47.822Z,1.17
2022-10-15T10:36:24.542Z,0.68
2022-10-15T10:39:03.583Z,0.47
2022-10-15T10:41:47.933Z,1.70
2022-10-15T10:44:25.076Z,1.00
2022-10-15T10:47:04.755Z,1.05
2022-10-15T10:49:35.400Z,0.77
2022-10-15T10:52:05.166Z,0.63
2022-10-15T10:54:34.948Z,0.70
2022-10-15T10:57:04.408Z,0.50
2022-10-15T10:59:38.743Z,0.73
2022-10-15T11:02:12.034Z,0.40
2022-10-15T11:04:41.971Z,0.45
2022-10-15T11:07:12.519Z,0.60
2022-10-15T11:09:52.340Z,0.40
2022-10-15T11:12:49.682Z,0.50
2022-10-15T11:15:27.948Z,0.30
2022-10-15T11:18:05.818Z,0.38
2022-10-15T11:20:57.778Z,0.57
2022-10-15T11:23:36.365Z,0.45
2022-10-15T11:26:07.471Z,0.60
2022-10-15T11:28:46.310Z,0.60
2022-10-15T11:34:20.140Z,0.65
2022-10-15T11:36:57.787Z,0.45
2022-10-15T11:39:44.957Z,0.70
2022-10-15T11:42:18.788Z,0.50
2022-10-15T11:45:12.512Z,0.60
2022-10-15T11:47:49.349Z,0.60
2022-10-15T11:50:36.698Z,0.70
2022-10-15T11:53:11.814Z,0.55
2022-10-15T11:55:43.986Z,0.50
2022-10-15T11:58:16.586Z,0.52
2022-10-15T12:00:48.624Z,0.35
2022-10-15T12:03:22.573Z,0.50
2022-10-15T12:05:54.379Z,0.35
2022-10-15T12:08:24.051Z,0.47
2022-10-15T12:11:00.934Z,0.45
2022-10-15T12:13:32.848Z,0.70
2022-10-15T12:16:07.327Z,0.82
2022-10-15T12:18:41.510Z,0.60
2022-10-15T12:21:25.863Z,0.75
2022-10-15T12:23:55.304Z,0.70
2022-10-15T12:26:29.785Z,0.50
2022-10-15T12:29:03.057Z,0.68
2022-10-15T12:31:46.875Z,0.63
2022-10-15T12:34:38.590Z,0.55
2022-10-15T12:37:10.178Z,0.50
2022-10-15T12:39:58.239Z,0.40
2022-10-15T12:42:30.016Z,0.47
2022-10-15T12:45:00.638Z,0.40
2022-10-15T12:47:45.354Z,0.60
2022-10-15T12:50:19.573Z,0.40
2022-10-15T12:53:02.911Z,0.60
2022-10-15T12:55:34.002Z,0.77
2022-10-15T12:58:08.244Z,0.70
2022-10-15T13:00:42.488Z,0.75
2022-10-15T13:03:26.856Z,0.45
2022-10-15T13:05:58.966Z,0.50
2022-10-15T13:08:39.984Z,0.50
2022-10-15T13:11:18.246Z,0.50
2022-10-15T13:13:48.377Z,1.02
2022-10-15T13:16:17.863Z,0.63
2022-10-15T13:18:52.296Z,1.35
2022-10-15T13:21:24.531Z,1.25
2022-10-15T13:23:54.254Z,0.80
2022-10-15T13:26:25.731Z,0.77
2022-10-15T13:28:56.051Z,0.98
2022-10-15T13:31:30.090Z,0.52
2022-10-15T13:34:02.419Z,1.20
2022-10-15T13:36:36.149Z,1.08
2022-10-15T13:39:07.039Z,0.50
2022-10-15T13:41:37.501Z,0.30
2022-10-15T13:44:07.469Z,0.38
2022-10-15T13:46:40.224Z,0.30
2022-10-15T13:49:14.044Z,0.47
2022-10-15T13:51:46.736Z,0.47
2022-10-15T13:54:19.058Z,0.30
2022-10-15T13:56:53.060Z,0.50
2022-10-15T13:59:23.040Z,0.30
2022-10-15T14:01:55.707Z,0.63
2022-10-15T14:04:26.078Z,0.52
2022-10-15T14:07:02.310Z,0.50
2022-10-15T14:09:33.796Z,0.80
2022-10-15T14:12:03.806Z,0.47
2022-10-15T14:14:35.464Z,0.38
2022-10-15T14:17:06.378Z,0.50
2022-10-15T14:19:37.025Z,0.35
2022-10-15T14:22:09.434Z,0.32
2022-10-15T14:24:40.341Z,0.28
2022-10-15T14:27:10.714Z,0.60
2022-10-15T14:29:41.691Z,0.15
2022-10-15T14:32:22.197Z,0.30
2022-10-15T14:34:51.995Z,0.38
2022-10-15T14:37:34.492Z,0.30
2022-10-15T14:40:12.978Z,0.50
2022-10-15T14:42:43.240Z,0.32
2022-10-15T14:45:22.008Z,0.20
2022-10-15T14:47:52.592Z,0.45
2022-10-15T14:50:23.051Z,0.30
2022-10-15T14:52:56.583Z,0.55
2022-10-15T14:55:33.639Z,0.40
2022-10-15T14:58:04.655Z,0.30
2022-10-15T15:00:35.297Z,0.22
2022-10-15T15:03:06.153Z,0.80
2022-10-15T15:05:46.545Z,0.25
2022-10-15T15:08:19.104Z,0.50
2022-10-15T15:10:49.626Z,0.40
2022-10-15T15:13:22.616Z,1.30
2022-10-15T15:15:52.557Z,0.73
2022-10-15T15:18:22.387Z,0.80
2022-10-15T15:20:52.551Z,0.57
2022-10-15T15:23:25.758Z,1.00
2022-10-15T15:25:56.004Z,1.05
2022-10-15T15:28:26.311Z,0.52
2022-10-15T15:30:59.236Z,0.60
2022-10-15T15:33:29.319Z,0.77
2022-10-15T15:36:02.643Z,0.75
2022-10-15T15:41:06.648Z,1.75
2022-10-15T15:43:36.157Z,1.98
2022-10-15T15:46:05.636Z,1.50
2022-10-15T15:48:35.189Z,1.65
2022-10-15T15:51:05.545Z,1.23
2022-10-15T15:53:38.047Z,1.35
2022-10-15T15:56:07.755Z,1.20
2022-10-15T15:58:37.157Z,0.70
2022-10-15T16:01:06.663Z,1.08
2022-10-15T16:03:36.134Z,1.20
2022-10-15T16:06:07.429Z,1.27
2022-10-15T16:08:39.587Z,1.75
2022-10-15T16:11:09.885Z,1.75
2022-10-15T16:13:40.948Z,1.05
2022-10-15T16:16:10.724Z,1.40
2022-10-15T16:18:40.317Z,2.25
2022-10-15T16:21:09.850Z,1.48
2022-10-15T16:23:42.452Z,1.83
2022-10-15T16:26:11.922Z,1.55
2022-10-15T16:28:41.366Z,1.50
2022-10-15T16:31:16.174Z,1.40
2022-10-15T16:33:45.717Z,1.30
2022-10-15T16:36:15.163Z,1.92
2022-10-15T16:38:48.017Z,1.65
2022-10-15T16:41:18.867Z,1.42
2022-10-15T16:43:48.431Z,1.52
2022-10-15T16:46:18.003Z,1.40
2022-10-15T16:48:47.676Z,1.02
2022-10-15T16:51:18.068Z,0.98
2022-10-15T16:53:50.402Z,1.10
2022-10-15T16:56:21.674Z,1.42
2022-10-15T16:58:51.188Z,2.25
2022-10-15T17:01:21.791Z,2.22
2022-10-15T17:03:51.661Z,1.60
2022-10-15T17:06:23.423Z,1.77
2022-10-15T17:08:56.579Z,1.40
2022-10-15T17:11:27.173Z,1.20
2022-10-15T17:13:58.202Z,1.65
2022-10-15T17:16:28.599Z,1.50
2022-10-15T17:18:58.494Z,1.52
2022-10-15T17:21:28.608Z,1.40
2022-10-15T17:24:01.819Z,1.15
2022-10-15T17:26:33.405Z,0.93
2022-10-15T17:29:02.998Z,0.65
2022-10-15T17:31:32.476Z,1.42
2022-10-15T17:34:02.753Z,0.90
2022-10-15T17:36:33.582Z,0.60
2022-10-15T17:39:05.967Z,0.45
2022-10-15T17:41:35.637Z,0.88
2022-10-15T17:44:05.270Z,1.00
2022-10-15T17:46:34.830Z,1.00
2022-10-15T17:49:04.316Z,1.15
2022-10-15T17:51:35.148Z,1.27
2022-10-15T17:54:07.375Z,1.58
2022-10-15T17:56:38.691Z,1.52
2022-10-15T17:59:08.959Z,1.50
2022-10-15T18:01:57.258Z,1.70
2022-10-15T18:04:28.199Z,0.90
2022-10-15T18:06:57.661Z,1.42
2022-10-15T18:09:30.191Z,0.85
2022-10-15T18:12:03.621Z,1.30
2022-10-15T18:14:36.012Z,1.48
2022-10-15T18:17:05.982Z,1.23
2022-10-15T18:19:35.480Z,1.17
2022-10-15T18:22:04.935Z,0.82
2022-10-15T18:24:37.011Z,1.45
2022-10-15T18:27:07.312Z,1.02
2022-10-15T18:29:36.769Z,0.95
2022-10-15T18:32:06.345Z,1.05
2022-10-15T18:34:36.096Z,1.05
2022-10-15T18:37:05.586Z,1.13
2022-10-15T18:39:37.667Z,1.30
2022-10-15T18:42:07.189Z,1.00
2022-10-15T18:44:36.625Z,1.75
2022-10-15T18:47:06.134Z,1.20
2022-10-15T18:49:43.203Z,1.15
2022-10-15T18:52:21.481Z,1.60
2022-10-15T18:54:54.062Z,1.42
2022-10-15T18:57:23.674Z,1.08
2022-10-15T19:02:43.054Z,0.90
2022-10-15T19:05:12.549Z,1.83
2022-10-15T19:07:42.063Z,1.40
2022-10-15T19:10:16.514Z,1.48
2022-10-15T19:12:48.807Z,1.33
2022-10-15T19:15:18.430Z,1.17
2022-10-15T19:17:48.003Z,1.15
2022-10-15T19:20:17.569Z,1.05
2022-10-15T19:22:47.426Z,1.45
2022-10-15T19:25:19.662Z,1.15
2022-10-15T19:27:49.653Z,3.03
2022-10-15T19:30:21.141Z,2.13
2022-10-15T19:32:50.946Z,2.95
2022-10-15T19:35:20.367Z,1.77
2022-10-15T19:37:49.972Z,1.65
2022-10-15T19:40:22.056Z,1.40
2022-10-15T19:42:51.589Z,1.33
2022-10-15T19:45:22.799Z,1.50
2022-10-15T19:47:52.399Z,1.60
2022-10-15T19:50:21.871Z,1.30
2022-10-15T19:52:53.065Z,1.35
2022-10-15T19:55:25.289Z,1.40
2022-10-15T19:57:57.082Z,1.60
2022-10-15T20:00:26.783Z,1.52
2022-10-15T20:02:56.601Z,1.55
2022-10-15T20:05:26.143Z,1.27
2022-10-15T20:07:55.686Z,1.05
2022-10-15T20:10:27.820Z,1.45
2022-10-15T20:12:57.293Z,2.03
2022-10-15T20:15:26.762Z,1.27
2022-10-15T20:17:56.336Z,1.58
2022-10-15T20:20:26.361Z,1.50
2022-10-15T20:22:55.961Z,1.42
2022-10-15T20:25:28.057Z,1.52
2022-10-15T20:27:58.946Z,1.85
2022-10-15T20:30:28.575Z,1.88
2022-10-15T20:32:58.095Z,1.75
2022-10-15T20:35:27.621Z,2.17
2022-10-15T20:37:57.187Z,1.80
2022-10-15T20:40:29.273Z,2.22
2022-10-15T20:42:58.851Z,2.03
2022-10-15T20:45:29.270Z,1.27
2022-10-15T20:48:00.052Z,1.55
2022-10-15T20:50:31.204Z,0.93
2022-10-15T20:53:01.368Z,1.23
2022-10-15T20:55:33.478Z,1.10
2022-10-15T20:58:03.153Z,0.98
2022-10-15T21:00:32.666Z,1.30
2022-10-15T21:03:02.190Z,1.65
2022-10-15T21:05:31.957Z,2.30
2022-10-15T21:08:01.786Z,2.30
2022-10-15T21:10:33.937Z,2.50
2022-10-15T21:13:03.543Z,2.05
2022-10-15T21:15:33.430Z,2.00
2022-10-15T21:18:02.958Z,2.00
2022-10-15T21:20:32.534Z,1.10
2022-10-15T21:23:02.154Z,1.17
2022-10-15T21:25:34.354Z,1.50
2022-10-15T21:28:03.892Z,1.75
2022-10-15T21:30:33.348Z,1.55
2022-10-15T21:33:04.394Z,1.40
2022-10-15T21:35:33.948Z,1.45
2022-10-15T21:38:03.360Z,1.27
2022-10-15T21:40:35.481Z,1.17
2022-10-15T21:43:04.946Z,1.48
2022-10-15T21:45:34.483Z,0.88
2022-10-15T21:48:04.012Z,0.93
2022-10-15T21:50:33.489Z,1.42
2022-10-15T21:53:03.849Z,1.23
2022-10-15T21:55:36.205Z,1.40
2022-10-15T21:58:05.776Z,0.90
2022-10-15T22:00:35.277Z,1.17
2022-10-15T22:03:04.743Z,1.08
2022-10-15T22:05:35.623Z,1.17
2022-10-15T22:08:05.187Z,1.58
2022-10-15T22:10:37.521Z,1.00
2022-10-15T22:13:07.097Z,0.90
2022-10-15T22:15:36.709Z,1.10
2022-10-15T22:18:06.194Z,1.10
2022-10-15T22:20:35.659Z,0.95
2022-10-15T22:23:05.206Z,1.27
2022-10-15T22:25:37.289Z,1.08
2022-10-15T22:28:07.149Z,1.00
2022-10-15T22:30:37.312Z,1.10
2022-10-15T22:33:06.865Z,1.45
2022-10-15T22:35:36.404Z,1.60
2022-10-15T22:38:05.903Z,1.73
2022-10-15T22:40:38.023Z,1.50
2022-10-15T22:43:07.566Z,1.85
2022-10-15T22:45:37.002Z,2.08
2022-10-15T22:48:06.596Z,2.22
2022-10-15T22:50:36.038Z,0.95
2022-10-15T22:53:05.655Z,0.90
2022-10-15T22:55:35.249Z,1.00
2022-10-15T22:58:07.454Z,0.98
2022-10-15T23:00:37.047Z,1.52
2022-10-15T23:03:06.594Z,0.80
2022-10-15T23:05:36.015Z,1.00
2022-10-15T23:08:05.741Z,0.90
2022-10-15T23:10:35.293Z,1.17
2022-10-15T23:13:07.595Z,1.15
2022-10-15T23:15:37.153Z,0.90
2022-10-15T23:18:06.580Z,0.95
2022-10-15T23:20:38.230Z,0.93
2022-10-15T23:23:07.845Z,0.90
2022-10-15T23:25:41.883Z,1.38
2022-10-15T23:28:14.657Z,0.95
2022-10-15T23:30:44.287Z,1.20
2022-10-15T23:33:13.694Z,0.88
2022-10-15T23:35:43.234Z,1.10
2022-10-15T23:38:12.820Z,1.27
2022-10-15T23:40:42.301Z,0.98
2022-10-15T23:43:14.353Z,0.50
2022-10-15T23:45:44.158Z,1.10
2022-10-15T23:48:13.578Z,1.08
2022-10-15T23:50:43.147Z,0.90
2022-10-15T23:53:15.695Z,1.05
2022-10-15T23:55:45.360Z,0.70
2022-10-15T23:58:17.672Z,0.90
